createdAt,value
2018-12-30T00:00:55.003Z,2.36
2018-12-30T00:01:54.973Z,2.45
2018-12-30T00:02:54.938Z,2.43
2018-12-30T00:03:54.931Z,2.43
2018-12-30T00:04:54.933Z,2.47
2018-12-30T00:05:54.926Z,2.50
2018-12-30T00:06:54.919Z,2.37
2018-12-30T00:07:54.888Z,2.41
2018-12-30T00:08:54.892Z,2.48
2018-12-30T00:09:54.862Z,2.36
2018-12-30T00:10:54.891Z,2.43
2018-12-30T00:11:54.891Z,2.53
2018-12-30T00:12:54.838Z,2.45
2018-12-30T00:13:54.819Z,2.56
2018-12-30T00:14:54.811Z,2.53
2018-12-30T00:15:54.810Z,2.61
2018-12-30T00:16:54.805Z,2.53
2018-12-30T00:17:54.783Z,2.56
2018-12-30T00:18:54.774Z,2.51
2018-12-30T00:19:54.760Z,2.58
2018-12-30T00:20:54.759Z,2.55
2018-12-30T00:21:54.922Z,2.63
2018-12-30T00:22:54.727Z,2.61
2018-12-30T00:23:54.727Z,2.59
2018-12-30T00:24:54.736Z,2.62
2018-12-30T00:25:54.699Z,2.48
2018-12-30T00:26:54.950Z,2.63
2018-12-30T00:27:54.690Z,2.68
2018-12-30T00:28:54.682Z,2.63
2018-12-30T00:29:54.655Z,2.65
2018-12-30T00:30:54.676Z,2.66
2018-12-30T00:31:54.875Z,2.65
2018-12-30T00:32:54.639Z,2.68
2018-12-30T00:33:54.612Z,2.65
2018-12-30T00:34:54.614Z,2.63
2018-12-30T00:35:54.619Z,2.61
2018-12-30T00:36:54.577Z,2.71
2018-12-30T00:37:54.621Z,2.63
2018-12-30T00:38:54.567Z,2.61
2018-12-30T00:39:54.570Z,2.59
2018-12-30T00:40:54.539Z,2.56
2018-12-30T00:41:54.543Z,2.61
2018-12-30T00:42:54.532Z,2.55
2018-12-30T00:43:54.504Z,2.55
2018-12-30T00:44:54.498Z,2.51
2018-12-30T00:45:54.490Z,2.59
2018-12-30T00:46:54.482Z,2.56
2018-12-30T00:47:54.556Z,2.55
2018-12-30T00:48:54.454Z,2.59
2018-12-30T00:49:54.453Z,2.63
2018-12-30T00:50:54.457Z,2.61
2018-12-30T00:51:54.419Z,2.59
2018-12-30T00:52:54.424Z,2.56
2018-12-30T00:53:54.404Z,2.62
2018-12-30T00:54:54.428Z,2.61
2018-12-30T00:55:54.376Z,2.63
2018-12-30T00:56:54.371Z,2.53
2018-12-30T00:57:54.417Z,2.62
2018-12-30T00:58:54.348Z,2.53
2018-12-30T00:59:54.337Z,2.58
2018-12-30T01:00:54.325Z,2.50
2018-12-30T01:01:54.332Z,2.55
2018-12-30T01:02:54.483Z,2.55
2018-12-30T01:03:54.406Z,2.50
2018-12-30T01:04:54.293Z,2.47
2018-12-30T01:05:54.281Z,2.47
2018-12-30T01:06:54.282Z,2.47
2018-12-30T01:07:54.307Z,2.45
2018-12-30T01:08:54.256Z,2.41
2018-12-30T01:09:54.231Z,2.53
2018-12-30T01:10:54.264Z,2.48
2018-12-30T01:11:54.232Z,2.48
2018-12-30T01:12:54.202Z,2.37
2018-12-30T01:13:54.209Z,2.45
2018-12-30T01:14:54.183Z,2.51
2018-12-30T01:15:54.174Z,2.47
2018-12-30T01:16:54.189Z,2.41
2018-12-30T01:17:54.172Z,2.59
2018-12-30T01:18:54.154Z,2.55
2018-12-30T01:19:54.128Z,2.44
2018-12-30T01:20:54.131Z,2.61
2018-12-30T01:21:54.129Z,2.50
2018-12-30T01:22:54.105Z,2.48
2018-12-30T01:23:54.120Z,2.59
2018-12-30T01:24:54.100Z,2.58
2018-12-30T01:25:54.087Z,2.56
2018-12-30T01:26:54.052Z,2.55
2018-12-30T01:27:54.081Z,2.58
2018-12-30T01:28:54.064Z,2.45
2018-12-30T01:29:54.030Z,2.58
2018-12-30T01:30:54.010Z,2.45
2018-12-30T01:31:54.003Z,2.58
2018-12-30T01:32:54.003Z,2.56
2018-12-30T01:33:54.004Z,2.58
2018-12-30T01:34:53.998Z,2.63
2018-12-30T01:35:53.957Z,2.59
2018-12-30T01:36:54.003Z,2.55
2018-12-30T01:37:53.965Z,2.55
2018-12-30T01:38:53.954Z,2.58
2018-12-30T01:39:53.919Z,2.59
2018-12-30T01:40:53.922Z,2.59
2018-12-30T01:41:53.900Z,2.59
2018-12-30T01:42:53.883Z,2.59
2018-12-30T01:43:53.905Z,2.65
2018-12-30T01:44:53.943Z,2.61
2018-12-30T01:45:53.854Z,2.58
2018-12-30T01:46:53.840Z,2.58
2018-12-30T01:47:53.846Z,2.69
2018-12-30T01:48:53.874Z,2.58
2018-12-30T01:49:53.817Z,2.65
2018-12-30T01:50:53.799Z,2.58
2018-12-30T01:51:53.797Z,2.61
2018-12-30T01:52:53.792Z,2.58
2018-12-30T01:53:53.798Z,2.58
2018-12-30T01:54:53.788Z,2.69
2018-12-30T01:55:53.765Z,2.63
2018-12-30T01:56:53.762Z,2.61
2018-12-30T01:57:53.726Z,2.58
2018-12-30T01:58:53.754Z,2.61
2018-12-30T01:59:53.751Z,2.62
2018-12-30T02:00:53.727Z,2.61
2018-12-30T02:01:53.682Z,2.59
2018-12-30T02:02:53.674Z,2.65
2018-12-30T02:03:53.679Z,2.58
2018-12-30T02:04:53.670Z,2.58
2018-12-30T02:05:53.678Z,2.55
2018-12-30T02:06:53.642Z,2.66
2018-12-30T02:07:53.621Z,2.73
2018-12-30T02:08:53.607Z,2.62
2018-12-30T02:09:53.615Z,2.55
2018-12-30T02:10:53.590Z,2.63
2018-12-30T02:11:53.604Z,2.68
2018-12-30T02:12:53.568Z,2.68
2018-12-30T02:13:53.560Z,2.59
2018-12-30T02:14:53.584Z,2.69
2018-12-30T02:15:53.565Z,2.69
2018-12-30T02:16:53.526Z,2.68
2018-12-30T02:17:53.524Z,2.68
2018-12-30T02:18:53.551Z,2.77
2018-12-30T02:19:53.511Z,2.68
2018-12-30T02:20:53.516Z,2.71
2018-12-30T02:21:53.479Z,2.68
2018-12-30T02:22:53.477Z,2.73
2018-12-30T02:23:53.472Z,2.77
2018-12-30T02:24:53.475Z,2.68
2018-12-30T02:25:53.436Z,2.73
2018-12-30T02:26:53.420Z,2.69
2018-12-30T02:27:53.445Z,2.79
2018-12-30T02:28:53.400Z,2.81
2018-12-30T02:29:53.408Z,2.79
2018-12-30T02:30:53.405Z,2.71
2018-12-30T02:31:53.371Z,2.65
2018-12-30T02:32:53.359Z,2.77
2018-12-30T02:33:53.353Z,2.73
2018-12-30T02:34:53.383Z,2.84
2018-12-30T02:35:53.326Z,2.84
2018-12-30T02:36:53.318Z,2.69
2018-12-30T02:37:53.309Z,2.71
2018-12-30T02:38:53.293Z,2.77
2018-12-30T02:39:53.300Z,2.76
2018-12-30T02:40:53.329Z,2.69
2018-12-30T02:41:53.305Z,2.84
2018-12-30T02:42:53.273Z,2.68
2018-12-30T02:43:53.243Z,2.80
2018-12-30T02:44:53.230Z,2.79
2018-12-30T02:45:53.239Z,2.79
2018-12-30T02:46:53.209Z,2.65
2018-12-30T02:47:53.201Z,2.71
2018-12-30T02:48:53.212Z,2.73
2018-12-30T02:49:53.200Z,2.79
2018-12-30T02:50:53.190Z,2.69
2018-12-30T02:51:53.174Z,2.77
2018-12-30T02:52:53.175Z,2.77
2018-12-30T02:53:53.163Z,2.73
2018-12-30T02:54:53.153Z,2.84
2018-12-30T02:55:53.153Z,2.76
2018-12-30T02:56:53.117Z,2.76
2018-12-30T02:57:53.104Z,2.86
2018-12-30T02:58:53.096Z,2.81
2018-12-30T02:59:53.073Z,2.94
2018-12-30T03:00:53.123Z,2.86
2018-12-30T03:01:53.054Z,2.94
2018-12-30T03:02:53.053Z,2.86
2018-12-30T03:03:53.047Z,2.90
2018-12-30T03:04:53.026Z,2.94
2018-12-30T03:05:53.041Z,2.94
2018-12-30T03:06:53.003Z,2.94
2018-12-30T03:07:53.033Z,2.98
2018-12-30T03:08:52.984Z,3.07
2018-12-30T03:09:52.969Z,3.05
2018-12-30T03:10:52.982Z,2.94
2018-12-30T03:11:52.991Z,3.10
2018-12-30T03:12:52.938Z,3.07
2018-12-30T03:13:52.928Z,2.92
2018-12-30T03:14:52.917Z,2.95
2018-12-30T03:15:52.950Z,2.94
2018-12-30T03:16:52.903Z,2.95
2018-12-30T03:17:52.896Z,2.89
2018-12-30T03:18:52.880Z,2.97
2018-12-30T03:19:52.869Z,2.98
2018-12-30T03:20:52.873Z,2.94
2018-12-30T03:21:59.146Z,2.97
2018-12-30T03:22:53.832Z,2.95
2018-12-30T03:23:52.829Z,2.92
2018-12-30T03:24:52.834Z,2.90
2018-12-30T03:25:52.831Z,2.92
2018-12-30T03:26:52.803Z,2.99
2018-12-30T03:27:52.788Z,2.98
2018-12-30T03:28:52.783Z,2.94
2018-12-30T03:29:52.760Z,2.99
2018-12-30T03:30:52.768Z,2.97
2018-12-30T03:31:52.794Z,2.97
2018-12-30T03:32:52.734Z,2.95
2018-12-30T03:33:52.721Z,2.97
2018-12-30T03:34:52.741Z,2.97
2018-12-30T03:35:52.740Z,2.99
2018-12-30T03:36:52.695Z,2.98
2018-12-30T03:37:52.676Z,3.01
2018-12-30T03:38:52.681Z,2.94
2018-12-30T03:39:52.653Z,2.94
2018-12-30T03:40:52.673Z,3.04
2018-12-30T03:41:52.666Z,2.94
2018-12-30T03:42:52.636Z,3.02
2018-12-30T03:43:52.632Z,2.95
2018-12-30T03:44:52.602Z,3.08
2018-12-30T03:45:52.591Z,2.94
2018-12-30T03:46:52.594Z,2.92
2018-12-30T03:47:52.570Z,2.92
2018-12-30T03:48:52.579Z,2.98
2018-12-30T03:49:52.552Z,2.97
2018-12-30T03:50:52.546Z,2.95
2018-12-30T03:51:52.570Z,2.94
2018-12-30T03:52:52.519Z,2.94
2018-12-30T03:53:52.516Z,2.98
2018-12-30T03:54:52.503Z,2.94
2018-12-30T03:55:52.484Z,2.97
2018-12-30T03:56:52.530Z,2.97
2018-12-30T03:57:52.464Z,2.97
2018-12-30T03:58:52.460Z,2.95
2018-12-30T03:59:52.446Z,2.97
2018-12-30T04:00:52.440Z,3.02
2018-12-30T04:01:52.484Z,2.97
2018-12-30T04:02:52.429Z,3.08
2018-12-30T04:03:52.426Z,3.05
2018-12-30T04:04:52.400Z,2.98
2018-12-30T04:05:52.381Z,2.95
2018-12-30T04:06:52.388Z,3.04
2018-12-30T04:07:52.359Z,3.07
2018-12-30T04:08:52.358Z,3.08
2018-12-30T04:09:52.352Z,3.04
2018-12-30T04:10:52.341Z,3.07
2018-12-30T04:11:52.331Z,3.10
2018-12-30T04:12:52.308Z,2.98
2018-12-30T04:13:52.315Z,3.02
2018-12-30T04:14:52.330Z,2.97
2018-12-30T04:15:52.352Z,2.97
2018-12-30T04:16:52.283Z,2.99
2018-12-30T04:17:52.259Z,3.02
2018-12-30T04:18:52.270Z,2.99
2018-12-30T04:19:52.235Z,2.95
2018-12-30T04:20:52.234Z,2.98
2018-12-30T04:21:52.240Z,2.92
2018-12-30T04:22:52.224Z,3.04
2018-12-30T04:23:52.192Z,3.10
2018-12-30T04:24:52.187Z,3.07
2018-12-30T04:25:52.197Z,2.95
2018-12-30T04:26:52.174Z,3.08
2018-12-30T04:27:52.158Z,3.15
2018-12-30T04:28:52.144Z,3.08
2018-12-30T04:29:52.137Z,3.07
2018-12-30T04:30:52.136Z,3.08
2018-12-30T04:31:52.134Z,3.17
2018-12-30T04:32:52.211Z,3.13
2018-12-30T04:33:52.098Z,3.01
2018-12-30T04:34:52.078Z,3.08
2018-12-30T04:35:52.068Z,3.19
2018-12-30T04:36:52.109Z,3.13
2018-12-30T04:37:52.059Z,3.15
2018-12-30T04:38:52.035Z,3.13
2018-12-30T04:39:52.023Z,3.08
2018-12-30T04:40:52.026Z,3.22
2018-12-30T04:41:52.021Z,3.10
2018-12-30T04:42:51.992Z,3.22
2018-12-30T04:43:52.140Z,3.19
2018-12-30T04:44:51.997Z,3.10
2018-12-30T04:45:51.963Z,3.12
2018-12-30T04:46:51.966Z,3.15
2018-12-30T04:47:51.941Z,3.22
2018-12-30T04:48:51.931Z,3.20
2018-12-30T04:49:51.922Z,3.08
2018-12-30T04:50:51.912Z,3.12
2018-12-30T04:51:51.936Z,3.12
2018-12-30T04:52:51.935Z,3.12
2018-12-30T04:53:51.883Z,3.13
2018-12-30T04:54:51.873Z,3.08
2018-12-30T04:55:51.856Z,3.16
2018-12-30T04:56:51.859Z,3.22
2018-12-30T04:57:51.865Z,3.13
2018-12-30T04:58:51.824Z,3.23
2018-12-30T04:59:51.825Z,3.25
2018-12-30T05:00:51.829Z,3.19
2018-12-30T05:01:51.796Z,3.17
2018-12-30T05:02:51.826Z,3.17
2018-12-30T05:03:51.772Z,3.07
2018-12-30T05:04:51.761Z,3.10
2018-12-30T05:05:51.772Z,3.13
2018-12-30T05:06:51.744Z,3.12
2018-12-30T05:07:51.747Z,3.16
2018-12-30T05:08:51.719Z,3.08
2018-12-30T05:09:51.744Z,3.15
2018-12-30T05:10:51.698Z,3.12
2018-12-30T05:11:51.693Z,3.12
2018-12-30T05:12:51.699Z,3.12
2018-12-30T05:13:51.770Z,3.12
2018-12-30T05:14:51.662Z,3.15
2018-12-30T05:15:51.673Z,3.28
2018-12-30T05:16:51.636Z,3.20
2018-12-30T05:17:51.661Z,3.22
2018-12-30T05:18:51.618Z,3.20
2018-12-30T05:19:51.607Z,3.23
2018-12-30T05:20:51.594Z,3.25
2018-12-30T05:21:51.595Z,3.19
2018-12-30T05:22:51.586Z,3.35
2018-12-30T05:23:51.583Z,3.23
2018-12-30T05:24:51.551Z,3.34
2018-12-30T05:25:51.544Z,3.33
2018-12-30T05:26:51.532Z,3.34
2018-12-30T05:27:51.546Z,3.39
2018-12-30T05:28:51.534Z,3.39
2018-12-30T05:29:51.500Z,3.39
2018-12-30T05:30:51.496Z,3.37
2018-12-30T05:31:51.500Z,3.37
2018-12-30T05:32:51.482Z,3.37
2018-12-30T05:33:51.459Z,3.39
2018-12-30T05:34:51.469Z,3.37
2018-12-30T05:35:51.473Z,3.35
2018-12-30T05:36:51.447Z,3.50
2018-12-30T05:37:51.429Z,3.37
2018-12-30T05:38:51.403Z,3.41
2018-12-30T05:39:51.394Z,3.33
2018-12-30T05:40:51.381Z,3.37
2018-12-30T05:41:51.398Z,3.34
2018-12-30T05:42:51.378Z,3.35
2018-12-30T05:43:51.364Z,3.34
2018-12-30T05:44:51.340Z,3.39
2018-12-30T05:45:51.339Z,3.37
2018-12-30T05:46:51.348Z,3.35
2018-12-30T05:47:51.371Z,3.33
2018-12-30T05:48:51.300Z,3.31
2018-12-30T05:49:51.292Z,3.31
2018-12-30T05:50:51.275Z,3.22
2018-12-30T05:51:51.295Z,3.33
2018-12-30T05:52:51.278Z,3.33
2018-12-30T05:53:51.263Z,3.33
2018-12-30T05:54:51.235Z,3.31
2018-12-30T05:55:51.231Z,3.41
2018-12-30T05:56:51.217Z,3.39
2018-12-30T05:57:51.220Z,3.34
2018-12-30T05:58:51.196Z,3.39
2018-12-30T05:59:51.219Z,3.39
2018-12-30T06:00:51.174Z,3.34
2018-12-30T06:01:51.175Z,3.34
2018-12-30T06:02:51.173Z,3.45
2018-12-30T06:03:51.144Z,3.50
2018-12-30T06:04:51.147Z,3.39
2018-12-30T06:05:51.134Z,3.45
2018-12-30T06:06:51.109Z,3.49
2018-12-30T06:07:51.123Z,3.46
2018-12-30T06:08:51.106Z,3.53
2018-12-30T06:09:51.110Z,3.42
2018-12-30T06:10:51.068Z,3.42
2018-12-30T06:11:51.065Z,3.46
2018-12-30T06:12:51.062Z,3.49
2018-12-30T06:13:51.062Z,3.52
2018-12-30T06:14:51.025Z,3.57
2018-12-30T06:15:51.015Z,3.52
2018-12-30T06:16:51.018Z,3.50
2018-12-30T06:17:51.018Z,3.53
2018-12-30T06:18:50.980Z,3.49
2018-12-30T06:19:50.978Z,3.49
2018-12-30T06:20:50.959Z,3.46
2018-12-30T06:21:51.004Z,3.42
2018-12-30T06:22:50.981Z,3.42
2018-12-30T06:23:50.946Z,3.56
2018-12-30T06:24:50.949Z,3.50
2018-12-30T06:25:50.907Z,3.45
2018-12-30T06:26:50.900Z,3.39
2018-12-30T06:27:50.900Z,3.39
2018-12-30T06:28:50.877Z,3.44
2018-12-30T06:29:50.876Z,3.46
2018-12-30T06:30:50.855Z,3.41
2018-12-30T06:31:50.847Z,3.46
2018-12-30T06:32:50.880Z,3.42
2018-12-30T06:33:50.823Z,3.45
2018-12-30T06:34:50.820Z,3.46
2018-12-30T06:35:50.813Z,3.37
2018-12-30T06:36:50.794Z,3.49
2018-12-30T06:37:50.806Z,3.46
2018-12-30T06:38:50.778Z,3.52
2018-12-30T06:39:50.782Z,3.41
2018-12-30T06:40:50.753Z,3.50
2018-12-30T06:41:50.741Z,3.53
2018-12-30T06:42:50.750Z,3.46
2018-12-30T06:43:50.727Z,3.49
2018-12-30T06:44:50.709Z,3.45
2018-12-30T06:45:50.752Z,3.50
2018-12-30T06:46:50.688Z,3.46
2018-12-30T06:47:50.692Z,3.41
2018-12-30T06:48:50.664Z,3.39
2018-12-30T06:49:50.662Z,3.39
2018-12-30T06:50:50.646Z,3.34
2018-12-30T06:51:50.690Z,3.35
2018-12-30T06:52:57.403Z,3.35
2018-12-30T06:53:51.636Z,3.34
2018-12-30T06:54:50.602Z,3.37
2018-12-30T06:55:50.594Z,3.37
2018-12-30T06:56:50.582Z,3.44
2018-12-30T06:57:50.588Z,3.42
2018-12-30T06:58:50.568Z,3.49
2018-12-30T06:59:50.577Z,3.45
2018-12-30T07:00:50.545Z,3.42
2018-12-30T07:01:50.535Z,3.46
2018-12-30T07:02:50.535Z,3.49
2018-12-30T07:03:50.510Z,3.49
2018-12-30T07:04:50.502Z,3.49
2018-12-30T07:05:50.489Z,3.49
2018-12-30T07:06:50.498Z,3.45
2018-12-30T07:07:50.482Z,3.49
2018-12-30T07:08:50.498Z,3.49
2018-12-30T07:09:50.455Z,3.53
2018-12-30T07:10:50.436Z,3.46
2018-12-30T07:11:50.424Z,3.53
2018-12-30T07:12:50.447Z,3.44
2018-12-30T07:13:50.403Z,3.45
2018-12-30T07:14:50.440Z,3.39
2018-12-30T07:15:50.383Z,3.44
2018-12-30T07:16:50.372Z,3.42
2018-12-30T07:17:50.375Z,3.37
2018-12-30T07:18:50.365Z,3.41
2018-12-30T07:19:50.342Z,3.53
2018-12-30T07:20:50.332Z,3.42
2018-12-30T07:21:50.333Z,3.44
2018-12-30T07:22:50.330Z,3.54
2018-12-30T07:23:50.302Z,3.56
2018-12-30T07:24:50.295Z,3.46
2018-12-30T07:25:50.287Z,3.54
2018-12-30T07:26:50.284Z,3.42
2018-12-30T07:27:50.317Z,3.52
2018-12-30T07:28:50.267Z,3.52
2018-12-30T07:29:50.239Z,3.41
2018-12-30T07:30:50.228Z,3.52
2018-12-30T07:31:50.218Z,3.57
2018-12-30T07:32:50.205Z,3.54
2018-12-30T07:33:50.208Z,3.49
2018-12-30T07:34:50.187Z,3.42
2018-12-30T07:35:50.177Z,3.57
2018-12-30T07:36:50.161Z,3.39
2018-12-30T07:37:50.173Z,3.49
2018-12-30T07:38:50.180Z,3.44
2018-12-30T07:39:50.141Z,3.60
2018-12-30T07:40:50.141Z,3.49
2018-12-30T07:41:50.174Z,3.56
2018-12-30T07:42:50.110Z,3.63
2018-12-30T07:43:50.124Z,3.67
2018-12-30T07:44:50.124Z,3.60
2018-12-30T07:45:50.075Z,3.77
2018-12-30T07:46:50.059Z,3.72
2018-12-30T07:47:50.048Z,3.72
2018-12-30T07:48:50.064Z,3.75
2018-12-30T07:49:50.028Z,3.72
2018-12-30T07:50:50.016Z,3.72
2018-12-30T07:51:50.025Z,3.70
2018-12-30T07:52:50.012Z,3.70
2018-12-30T07:53:50.013Z,3.78
2018-12-30T07:54:50.005Z,3.77
2018-12-30T07:55:49.992Z,3.75
2018-12-30T07:56:49.988Z,3.78
2018-12-30T07:57:49.967Z,3.78
2018-12-30T07:58:49.943Z,3.72
2018-12-30T07:59:49.937Z,3.77
2018-12-30T08:00:50.006Z,3.81
2018-12-30T08:01:49.900Z,3.82
2018-12-30T08:02:49.917Z,3.80
2018-12-30T08:03:49.898Z,3.81
2018-12-30T08:04:49.888Z,3.75
2018-12-30T08:05:49.858Z,3.88
2018-12-30T08:06:49.888Z,3.81
2018-12-30T08:07:49.853Z,3.82
2018-12-30T08:08:49.840Z,3.80
2018-12-30T08:09:49.815Z,3.77
2018-12-30T08:10:49.858Z,3.75
2018-12-30T08:11:49.816Z,3.74
2018-12-30T08:12:49.790Z,3.78
2018-12-30T08:13:49.803Z,3.78
2018-12-30T08:14:49.774Z,3.78
2018-12-30T08:15:49.779Z,3.78
2018-12-30T08:16:49.755Z,3.74
2018-12-30T08:17:49.817Z,3.81
2018-12-30T08:18:49.749Z,3.74
2018-12-30T08:19:49.732Z,3.77
2018-12-30T08:20:49.704Z,3.82
2018-12-30T08:21:49.693Z,3.81
2018-12-30T08:22:49.705Z,3.93
2018-12-30T08:23:49.686Z,3.95
2018-12-30T08:24:49.704Z,3.95
2018-12-30T08:25:49.648Z,3.89
2018-12-30T08:26:49.685Z,3.90
2018-12-30T08:27:49.627Z,3.92
2018-12-30T08:28:49.655Z,3.86
2018-12-30T08:29:49.612Z,3.80
2018-12-30T08:30:49.611Z,3.82
2018-12-30T08:31:49.585Z,3.75
2018-12-30T08:32:49.579Z,3.82
2018-12-30T08:33:49.582Z,3.77
2018-12-30T08:34:49.564Z,3.78
2018-12-30T08:35:49.543Z,3.80
2018-12-30T08:36:49.554Z,3.80
2018-12-30T08:37:49.526Z,3.93
2018-12-30T08:38:49.527Z,3.89
2018-12-30T08:39:49.501Z,3.86
2018-12-30T08:40:49.489Z,3.90
2018-12-30T08:41:49.483Z,3.93
2018-12-30T08:42:49.485Z,3.90
2018-12-30T08:43:49.502Z,3.95
2018-12-30T08:44:49.455Z,3.93
2018-12-30T08:45:49.444Z,3.96
2018-12-30T08:46:49.455Z,3.98
2018-12-30T08:47:49.417Z,3.96
2018-12-30T08:48:49.807Z,3.95
2018-12-30T08:49:49.418Z,3.96
2018-12-30T08:50:49.385Z,4.00
2018-12-30T08:51:49.379Z,3.92
2018-12-30T08:52:49.408Z,4.00
2018-12-30T08:53:49.392Z,4.00
2018-12-30T08:54:49.344Z,4.00
2018-12-30T08:55:49.368Z,4.10
2018-12-30T08:56:49.325Z,3.99
2018-12-30T08:57:49.311Z,3.96
2018-12-30T08:58:49.343Z,3.95
2018-12-30T08:59:49.295Z,4.08
2018-12-30T09:00:49.288Z,4.06
2018-12-30T09:01:49.269Z,4.10
2018-12-30T09:02:49.279Z,4.06
2018-12-30T09:03:49.257Z,4.00
2018-12-30T09:04:49.266Z,4.08
2018-12-30T09:05:49.228Z,4.10
2018-12-30T09:06:49.218Z,4.10
2018-12-30T09:07:49.208Z,4.04
2018-12-30T09:08:49.243Z,4.20
2018-12-30T09:09:49.204Z,4.18
2018-12-30T09:10:49.234Z,4.11
2018-12-30T09:11:49.167Z,4.10
2018-12-30T09:12:49.179Z,4.02
2018-12-30T09:13:49.170Z,4.13
2018-12-30T09:14:49.242Z,4.06
2018-12-30T09:15:49.129Z,4.08
2018-12-30T09:16:49.133Z,4.11
2018-12-30T09:17:49.126Z,4.14
2018-12-30T09:18:49.092Z,4.11
2018-12-30T09:19:49.100Z,4.14
2018-12-30T09:20:49.076Z,4.13
2018-12-30T09:21:49.062Z,4.17
2018-12-30T09:22:49.058Z,4.26
2018-12-30T09:23:49.084Z,4.25
2018-12-30T09:24:49.049Z,4.28
2018-12-30T09:25:49.061Z,4.32
2018-12-30T09:26:49.009Z,4.34
2018-12-30T09:27:48.999Z,4.35
2018-12-30T09:28:49.010Z,4.44
2018-12-30T09:29:48.992Z,4.49
2018-12-30T09:30:48.968Z,4.47
2018-12-30T09:31:48.961Z,4.43
2018-12-30T09:32:49.001Z,4.36
2018-12-30T09:33:48.935Z,4.31
2018-12-30T09:34:48.940Z,4.43
2018-12-30T09:35:48.934Z,4.36
2018-12-30T09:36:48.934Z,4.53
2018-12-30T09:37:48.899Z,4.53
2018-12-30T09:38:48.907Z,4.61
2018-12-30T09:39:48.890Z,4.71
2018-12-30T09:40:48.860Z,4.69
2018-12-30T09:41:48.884Z,4.86
2018-12-30T09:42:48.840Z,4.93
2018-12-30T09:43:48.828Z,5.01
2018-12-30T09:44:48.836Z,5.14
2018-12-30T09:45:48.809Z,5.14
2018-12-30T09:46:48.802Z,5.17
2018-12-30T09:47:48.802Z,5.04
2018-12-30T09:48:48.839Z,5.01
2018-12-30T09:49:48.805Z,5.11
2018-12-30T09:50:48.777Z,5.14
2018-12-30T09:51:48.802Z,5.14
2018-12-30T09:52:48.732Z,5.11
2018-12-30T09:53:48.728Z,5.02
2018-12-30T09:54:48.724Z,5.01
2018-12-30T09:55:48.717Z,5.11
2018-12-30T09:56:48.695Z,4.94
2018-12-30T09:57:48.686Z,4.97
2018-12-30T09:58:48.691Z,4.90
2018-12-30T09:59:48.689Z,4.80
2018-12-30T10:00:48.691Z,4.75
2018-12-30T10:01:48.649Z,4.67
2018-12-30T10:02:48.650Z,4.68
2018-12-30T10:03:48.614Z,4.67
2018-12-30T10:04:48.674Z,4.62
2018-12-30T10:05:48.606Z,4.67
2018-12-30T10:06:48.581Z,4.61
2018-12-30T10:07:48.574Z,4.54
2018-12-30T10:08:48.573Z,4.56
2018-12-30T10:09:48.570Z,4.65
2018-12-30T10:10:48.539Z,4.68
2018-12-30T10:11:48.581Z,4.75
2018-12-30T10:12:48.522Z,4.80
2018-12-30T10:13:48.530Z,4.84
2018-12-30T10:14:48.527Z,4.83
2018-12-30T10:15:48.501Z,4.87
2018-12-30T10:16:48.481Z,4.91
2018-12-30T10:17:48.487Z,5.04
2018-12-30T10:18:48.478Z,5.08
2018-12-30T10:19:48.448Z,5.19
2018-12-30T10:20:48.488Z,5.22
2018-12-30T10:21:48.445Z,5.15
2018-12-30T10:22:48.414Z,5.11
2018-12-30T10:23:52.888Z,5.02
2018-12-30T10:24:48.411Z,4.91
2018-12-30T10:25:48.403Z,5.06
2018-12-30T10:26:48.373Z,5.11
2018-12-30T10:27:48.360Z,5.14
2018-12-30T10:28:48.392Z,5.09
2018-12-30T10:29:48.340Z,5.15
2018-12-30T10:30:48.360Z,5.19
2018-12-30T10:31:48.321Z,5.23
2018-12-30T10:32:48.307Z,5.24
2018-12-30T10:33:48.320Z,5.17
2018-12-30T10:34:48.328Z,5.17
2018-12-30T10:35:48.359Z,5.22
2018-12-30T10:36:48.278Z,5.30
2018-12-30T10:37:48.281Z,5.27
2018-12-30T10:38:48.247Z,5.32
2018-12-30T10:39:48.250Z,5.38
2018-12-30T10:40:48.247Z,5.37
2018-12-30T10:41:48.227Z,5.42
2018-12-30T10:42:48.202Z,5.44
2018-12-30T10:43:48.215Z,5.41
2018-12-30T10:44:48.182Z,5.45
2018-12-30T10:45:48.215Z,5.47
2018-12-30T10:46:48.163Z,5.49
2018-12-30T10:47:48.162Z,5.52
2018-12-30T10:48:48.167Z,5.58
2018-12-30T10:49:48.169Z,5.59
2018-12-30T10:50:48.133Z,5.65
2018-12-30T10:51:48.104Z,5.55
2018-12-30T10:52:48.094Z,5.63
2018-12-30T10:53:48.158Z,5.63
2018-12-30T10:54:48.073Z,5.77
2018-12-30T10:55:48.083Z,5.75
2018-12-30T10:56:48.089Z,5.65
2018-12-30T10:57:48.094Z,5.62
2018-12-30T10:58:48.028Z,5.62
2018-12-30T10:59:48.043Z,5.60
2018-12-30T11:00:48.028Z,5.67
2018-12-30T11:01:48.009Z,5.66
2018-12-30T11:02:48.094Z,5.62
2018-12-30T11:03:47.978Z,5.62
2018-12-30T11:04:47.977Z,5.55
2018-12-30T11:05:47.973Z,5.52
2018-12-30T11:06:47.966Z,5.60
2018-12-30T11:07:47.937Z,5.55
2018-12-30T11:08:47.927Z,5.58
2018-12-30T11:09:47.937Z,5.66
2018-12-30T11:10:47.961Z,5.62
2018-12-30T11:11:48.843Z,5.59
2018-12-30T11:12:47.886Z,5.63
2018-12-30T11:13:47.891Z,5.60
2018-12-30T11:14:47.859Z,5.59
2018-12-30T11:15:47.880Z,5.60
2018-12-30T11:16:47.841Z,5.62
2018-12-30T11:17:47.831Z,5.62
2018-12-30T11:18:47.825Z,5.55
2018-12-30T11:19:47.809Z,5.59
2018-12-30T11:20:47.903Z,5.58
2018-12-30T11:21:47.805Z,5.62
2018-12-30T11:22:47.777Z,5.73
2018-12-30T11:23:47.767Z,5.63
2018-12-30T11:24:47.756Z,5.49
2018-12-30T11:25:47.766Z,5.59
2018-12-30T11:26:47.738Z,5.58
2018-12-30T11:27:47.757Z,5.56
2018-12-30T11:28:47.720Z,5.65
2018-12-30T11:29:47.700Z,5.78
2018-12-30T11:30:47.754Z,5.77
2018-12-30T11:31:47.685Z,5.77
2018-12-30T11:32:47.675Z,5.87
2018-12-30T11:33:47.695Z,5.90
2018-12-30T11:34:47.658Z,5.99
2018-12-30T11:35:47.664Z,5.96
2018-12-30T11:36:47.647Z,6.01
2018-12-30T11:37:47.641Z,6.06
2018-12-30T11:38:47.611Z,6.10
2018-12-30T11:39:47.615Z,6.05
2018-12-30T11:40:47.896Z,6.02
2018-12-30T11:41:47.574Z,6.10
2018-12-30T11:42:47.562Z,6.05
2018-12-30T11:43:47.582Z,5.99
2018-12-30T11:44:47.539Z,6.02
2018-12-30T11:45:47.533Z,6.01
2018-12-30T11:46:47.541Z,6.03
2018-12-30T11:47:47.538Z,6.05
2018-12-30T11:48:47.498Z,5.99
2018-12-30T11:49:47.491Z,5.95
2018-12-30T11:50:47.498Z,5.87
2018-12-30T11:51:47.519Z,5.75
2018-12-30T11:52:47.489Z,5.73
2018-12-30T11:53:47.499Z,5.48
2018-12-30T11:54:47.458Z,5.62
2018-12-30T11:55:47.428Z,5.63
2018-12-30T11:56:47.459Z,5.77
2018-12-30T11:57:47.407Z,5.69
2018-12-30T11:58:47.460Z,5.80
2018-12-30T11:59:47.401Z,5.69
2018-12-30T12:00:47.371Z,5.47
2018-12-30T12:01:47.373Z,5.45
2018-12-30T12:02:47.392Z,5.45
2018-12-30T12:03:47.338Z,5.42
2018-12-30T12:04:47.326Z,5.37
2018-12-30T12:05:47.334Z,5.42
2018-12-30T12:06:47.386Z,5.40
2018-12-30T12:07:47.299Z,5.41
2018-12-30T12:08:47.287Z,5.55
2018-12-30T12:09:47.284Z,5.58
2018-12-30T12:10:47.282Z,5.48
2018-12-30T12:11:47.288Z,5.51
2018-12-30T12:12:49.010Z,5.47
2018-12-30T12:13:47.244Z,5.51
2018-12-30T12:14:47.221Z,5.44
2018-12-30T12:15:47.230Z,5.40
2018-12-30T12:16:47.215Z,5.40
2018-12-30T12:17:47.209Z,5.41
2018-12-30T12:18:47.178Z,5.32
2018-12-30T12:19:47.173Z,5.38
2018-12-30T12:20:47.156Z,5.41
2018-12-30T12:21:47.164Z,5.45
2018-12-30T12:22:47.161Z,5.45
2018-12-30T12:23:47.128Z,5.38
2018-12-30T12:24:47.116Z,5.42
2018-12-30T12:25:47.103Z,5.38
2018-12-30T12:26:47.109Z,5.41
2018-12-30T12:27:47.088Z,5.30
2018-12-30T12:28:47.075Z,5.32
2018-12-30T12:29:47.059Z,5.44
2018-12-30T12:30:47.050Z,5.49
2018-12-30T12:31:47.053Z,5.59
2018-12-30T12:32:47.034Z,5.56
2018-12-30T12:33:47.021Z,5.58
2018-12-30T12:34:47.011Z,5.51
2018-12-30T12:35:46.997Z,5.60
2018-12-30T12:36:47.001Z,5.63
2018-12-30T12:37:46.975Z,5.62
2018-12-30T12:38:46.965Z,5.63
2018-12-30T12:39:46.954Z,5.73
2018-12-30T12:40:46.949Z,5.74
2018-12-30T12:41:46.947Z,5.73
2018-12-30T12:42:46.935Z,5.87
2018-12-30T12:43:46.911Z,5.74
2018-12-30T12:44:46.911Z,5.84
2018-12-30T12:45:46.892Z,5.80
2018-12-30T12:46:46.903Z,5.78
2018-12-30T12:47:46.868Z,5.77
2018-12-30T12:48:46.857Z,5.73
2018-12-30T12:49:46.846Z,5.75
2018-12-30T12:50:46.835Z,5.74
2018-12-30T12:51:46.840Z,5.75
2018-12-30T12:52:46.822Z,5.80
2018-12-30T12:53:46.804Z,5.75
2018-12-30T12:54:46.793Z,5.73
2018-12-30T12:55:46.819Z,5.73
2018-12-30T12:56:46.790Z,5.74
2018-12-30T12:57:46.760Z,5.75
2018-12-30T12:58:46.756Z,5.63
2018-12-30T12:59:46.738Z,5.74
2018-12-30T13:00:46.728Z,5.63
2018-12-30T13:01:46.805Z,5.56
2018-12-30T13:02:46.709Z,5.48
2018-12-30T13:03:46.699Z,5.52
2018-12-30T13:04:46.693Z,5.56
2018-12-30T13:05:46.673Z,5.59
2018-12-30T13:06:46.680Z,5.63
2018-12-30T13:07:46.653Z,5.74
2018-12-30T13:08:46.644Z,5.75
2018-12-30T13:09:46.634Z,5.75
2018-12-30T13:10:46.629Z,5.63
2018-12-30T13:11:46.640Z,5.73
2018-12-30T13:12:46.601Z,5.77
2018-12-30T13:13:46.590Z,5.73
2018-12-30T13:14:46.579Z,5.77
2018-12-30T13:15:46.568Z,5.77
2018-12-30T13:16:46.571Z,5.78
2018-12-30T13:17:46.561Z,5.81
2018-12-30T13:18:46.536Z,5.83